createdAt,value
2022-12-03T00:01:58.188Z,22.58
2022-12-03T00:04:26.944Z,28.05
2022-12-03T00:06:55.310Z,25.27
2022-12-03T00:09:24.154Z,25.67
2022-12-03T00:11:54.164Z,24.15
2022-12-03T00:14:23.890Z,21.45
2022-12-03T00:16:52.366Z,19.95
2022-12-03T00:19:20.860Z,20.88
2022-12-03T00:21:49.163Z,19.73
2022-12-03T00:24:17.876Z,19.58
2022-12-03T00:26:46.214Z,17.83
2022-12-03T00:29:14.604Z,16.60
2022-12-03T00:31:45.601Z,18.25
2022-12-03T00:34:14.066Z,19.80
2022-12-03T00:36:42.630Z,16.15
2022-12-03T00:39:11.118Z,15.77
2022-12-03T00:41:39.447Z,14.52
2022-12-03T00:44:08.029Z,18.08
2022-12-03T00:46:36.945Z,17.67
2022-12-03T00:49:06.866Z,17.60
2022-12-03T00:51:35.975Z,16.17
2022-12-03T00:54:05.614Z,15.23
2022-12-03T00:56:34.065Z,17.42
2022-12-03T00:59:02.441Z,15.50
2022-12-03T01:01:30.916Z,14.10
2022-12-03T01:04:00.492Z,14.75
2022-12-03T01:06:30.232Z,16.40
2022-12-03T01:08:58.547Z,17.67
2022-12-03T01:11:38.769Z,15.82
2022-12-03T01:14:07.592Z,14.50
2022-12-03T01:16:36.162Z,14.30
2022-12-03T01:19:05.133Z,15.75
2022-12-03T01:21:35.430Z,15.75
2022-12-03T01:24:04.204Z,13.60
2022-12-03T01:26:32.571Z,13.52
2022-12-03T01:29:01.145Z,14.70
2022-12-03T01:31:46.884Z,14.43
2022-12-03T01:34:15.431Z,13.10
2022-12-03T01:36:48.664Z,14.43
2022-12-03T01:39:17.927Z,12.05
2022-12-03T01:41:47.105Z,12.57
2022-12-03T01:44:21.665Z,12.07
2022-12-03T01:46:50.848Z,12.10
2022-12-03T01:49:22.542Z,14.88
2022-12-03T01:51:53.774Z,12.05
2022-12-03T01:54:26.942Z,15.65
2022-12-03T01:59:34.220Z,14.38
2022-12-03T02:02:12.791Z,13.70
2022-12-03T02:04:41.252Z,15.77
2022-12-03T02:07:35.459Z,13.65
2022-12-03T02:10:05.207Z,14.38
2022-12-03T02:12:37.943Z,16.73
2022-12-03T02:17:36.120Z,17.92
2022-12-03T02:20:07.501Z,16.77
2022-12-03T02:22:45.447Z,14.43
2022-12-03T02:25:18.336Z,13.88
2022-12-03T02:27:48.211Z,14.50
2022-12-03T02:30:18.661Z,15.73
2022-12-03T02:32:47.181Z,14.65
2022-12-03T02:35:16.821Z,16.23
2022-12-03T02:37:46.446Z,14.15
2022-12-03T02:40:21.477Z,15.18
2022-12-03T02:42:51.326Z,14.05
2022-12-03T02:45:22.493Z,14.98
2022-12-03T02:47:53.843Z,12.38
2022-12-03T02:50:27.433Z,14.93
2022-12-03T02:52:59.326Z,15.63
2022-12-03T02:55:36.337Z,16.20
2022-12-03T02:58:06.271Z,16.33
2022-12-03T03:00:36.614Z,14.45
2022-12-03T03:03:07.638Z,13.88
2022-12-03T03:05:39.305Z,15.00
2022-12-03T03:08:09.328Z,14.88
2022-12-03T03:10:41.065Z,14.80
2022-12-03T03:13:13.080Z,14.63
2022-12-03T03:15:42.523Z,13.40
2022-12-03T03:18:11.905Z,15.07
2022-12-03T03:20:42.439Z,15.02
2022-12-03T03:23:16.745Z,13.55
2022-12-03T03:25:48.916Z,13.00
2022-12-03T03:28:18.020Z,15.50
2022-12-03T03:30:46.798Z,13.77
2022-12-03T03:33:16.532Z,12.52
2022-12-03T03:35:46.808Z,14.68
2022-12-03T03:38:15.553Z,13.93
2022-12-03T03:40:44.461Z,14.23
2022-12-03T03:43:15.290Z,16.33
2022-12-03T03:45:44.263Z,15.98
2022-12-03T03:48:13.958Z,14.68
2022-12-03T03:50:43.406Z,12.95
2022-12-03T03:53:13.473Z,16.13
2022-12-03T03:55:42.260Z,15.07
2022-12-03T03:58:10.810Z,16.15
2022-12-03T04:00:40.743Z,14.02
2022-12-03T04:03:09.241Z,15.13
2022-12-03T04:05:37.840Z,14.40
2022-12-03T04:08:06.362Z,17.02
2022-12-03T04:11:06.851Z,13.52
2022-12-03T04:13:35.208Z,14.68
2022-12-03T04:16:05.101Z,13.90
2022-12-03T04:18:45.123Z,15.93
2022-12-03T04:21:33.343Z,14.88
2022-12-03T04:24:01.690Z,17.42
2022-12-03T04:26:47.929Z,17.20
2022-12-03T04:29:16.261Z,16.98
2022-12-03T04:32:03.435Z,17.08
2022-12-03T04:34:49.316Z,17.15
2022-12-03T04:37:18.023Z,17.73
2022-12-03T04:39:46.293Z,17.02
2022-12-03T04:42:14.680Z,15.63
2022-12-03T04:44:43.254Z,16.00
2022-12-03T04:47:14.536Z,16.15
2022-12-03T04:49:44.837Z,17.83
2022-12-03T04:52:15.302Z,18.95
2022-12-03T04:54:44.684Z,16.35
2022-12-03T04:57:13.240Z,18.58
2022-12-03T04:59:41.895Z,18.15
2022-12-03T05:02:10.681Z,19.45
2022-12-03T05:04:40.561Z,19.58
2022-12-03T05:07:08.791Z,19.15
2022-12-03T05:09:37.141Z,18.45
2022-12-03T05:12:06.127Z,19.95
2022-12-03T05:14:36.329Z,17.77
2022-12-03T05:17:04.797Z,19.73
2022-12-03T05:19:50.550Z,18.52
2022-12-03T05:22:20.248Z,21.25
2022-12-03T05:24:48.438Z,17.58
2022-12-03T05:27:21.716Z,20.23
2022-12-03T05:29:52.037Z,18.73
2022-12-03T05:32:20.336Z,20.98
2022-12-03T05:34:48.809Z,21.90
2022-12-03T05:37:17.017Z,23.05
2022-12-03T05:39:46.655Z,21.75
2022-12-03T05:42:32.383Z,21.52
2022-12-03T05:45:00.659Z,20.58
2022-12-03T05:47:29.101Z,20.92
2022-12-03T05:49:57.352Z,20.35
2022-12-03T05:52:25.557Z,22.73
2022-12-03T05:54:55.306Z,21.58
2022-12-03T05:57:23.675Z,23.58
2022-12-03T05:59:51.878Z,23.48
2022-12-03T06:02:20.478Z,25.40
2022-12-03T06:04:48.824Z,25.30
2022-12-03T06:07:17.023Z,24.50
2022-12-03T06:09:45.350Z,22.13
2022-12-03T06:12:14.961Z,24.10
2022-12-03T06:14:43.280Z,25.30
2022-12-03T06:17:11.629Z,23.25
2022-12-03T06:19:39.894Z,24.95
2022-12-03T06:22:08.193Z,25.13
2022-12-03T06:24:36.625Z,23.98
2022-12-03T06:27:05.231Z,25.88
2022-12-03T06:29:34.848Z,26.02
2022-12-03T06:32:03.335Z,26.90
2022-12-03T06:34:31.603Z,28.55
2022-12-03T06:36:59.894Z,26.05
2022-12-03T06:39:28.106Z,27.30
2022-12-03T06:41:56.350Z,28.35
2022-12-03T06:44:24.947Z,28.83
2022-12-03T06:46:54.878Z,28.70
2022-12-03T06:49:23.175Z,30.25
2022-12-03T06:51:51.436Z,29.73
2022-12-03T06:54:19.755Z,30.92
2022-12-03T06:56:48.024Z,28.67
2022-12-03T06:59:16.280Z,31.23
2022-12-03T07:01:44.589Z,29.85
2022-12-03T07:04:14.382Z,33.58
2022-12-03T07:06:42.583Z,32.28
2022-12-03T07:09:10.805Z,30.98
2022-12-03T07:11:41.089Z,30.73
2022-12-03T07:14:11.267Z,31.20
2022-12-03T07:16:40.489Z,29.90
2022-12-03T07:19:08.828Z,34.42
2022-12-03T07:21:38.835Z,34.70
2022-12-03T07:24:07.932Z,31.02
2022-12-03T07:26:36.279Z,32.83
2022-12-03T07:29:05.178Z,32.72
2022-12-03T07:31:33.613Z,35.85
2022-12-03T07:34:02.128Z,34.58
2022-12-03T07:36:30.576Z,32.63
2022-12-03T07:39:00.234Z,29.80
2022-12-03T07:41:28.458Z,33.50
2022-12-03T07:43:56.751Z,35.38
2022-12-03T07:46:25.005Z,32.03
2022-12-03T07:48:53.306Z,32.30
2022-12-03T07:51:21.635Z,35.80
2022-12-03T07:53:49.862Z,31.42
2022-12-03T07:56:19.475Z,31.45
2022-12-03T07:58:47.758Z,33.22
2022-12-03T08:01:16.121Z,35.42
2022-12-03T08:03:44.420Z,35.15
2022-12-03T08:06:12.710Z,36.15
2022-12-03T08:08:41.091Z,37.88
2022-12-03T08:11:13.942Z,33.50
2022-12-03T08:13:44.000Z,34.03
2022-12-03T08:16:17.930Z,32.45
2022-12-03T08:18:47.213Z,34.20
2022-12-03T08:21:17.546Z,36.85
2022-12-03T08:23:46.137Z,34.50
2022-12-03T08:26:21.892Z,32.90
2022-12-03T08:28:51.961Z,34.90
2022-12-03T08:31:27.984Z,35.60
2022-12-03T08:34:18.873Z,33.03
2022-12-03T08:36:51.365Z,34.88
2022-12-03T08:39:30.465Z,35.88
2022-12-03T08:42:21.633Z,37.95
2022-12-03T08:44:52.799Z,37.63
2022-12-03T08:47:22.428Z,39.42
2022-12-03T08:49:55.640Z,35.67
2022-12-03T08:54:56.104Z,37.95
2022-12-03T08:57:28.347Z,35.50
2022-12-03T09:00:01.234Z,32.53
2022-12-03T09:02:33.660Z,33.95
2022-12-03T09:05:13.423Z,37.25
2022-12-03T09:07:41.741Z,30.40
2022-12-03T09:10:10.798Z,37.15
2022-12-03T09:12:39.069Z,31.77
2022-12-03T09:15:09.905Z,33.85
2022-12-03T09:17:38.370Z,38.88
2022-12-03T09:20:08.131Z,37.00
2022-12-03T09:22:36.643Z,37.75
2022-12-03T09:25:05.552Z,33.70
2022-12-03T09:27:33.825Z,39.83
2022-12-03T09:30:02.111Z,36.35
2022-12-03T09:32:31.867Z,36.78
2022-12-03T09:35:00.281Z,41.03
2022-12-03T09:37:28.561Z,36.70
2022-12-03T09:39:56.835Z,37.15
2022-12-03T09:42:26.470Z,35.95
2022-12-03T09:44:55.711Z,36.17
2022-12-03T09:47:25.214Z,36.50
2022-12-03T09:49:55.305Z,36.55
2022-12-03T09:52:27.555Z,37.17
2022-12-03T09:54:56.764Z,39.55
2022-12-03T09:57:25.430Z,38.15
2022-12-03T09:59:53.896Z,36.35
2022-12-03T10:02:26.159Z,35.05
2022-12-03T10:04:58.230Z,40.53
2022-12-03T10:07:27.466Z,37.97
2022-12-03T10:09:56.095Z,34.03
2022-12-03T10:12:25.880Z,37.42
2022-12-03T10:14:55.013Z,32.42
2022-12-03T10:17:23.519Z,37.58
2022-12-03T10:19:52.409Z,35.08
2022-12-03T10:22:22.223Z,34.83
2022-12-03T10:25:07.535Z,36.05
2022-12-03T10:27:35.774Z,40.28
2022-12-03T10:30:07.269Z,37.58
2022-12-03T10:32:42.167Z,36.50
2022-12-03T10:35:14.088Z,37.10
2022-12-03T10:40:55.726Z,37.42
2022-12-03T10:43:25.795Z,38.40
2022-12-03T10:46:12.769Z,34.55
2022-12-03T10:48:41.295Z,38.85
2022-12-03T10:51:17.001Z,37.05
2022-12-03T10:53:45.388Z,36.92
2022-12-03T10:56:25.297Z,35.65
2022-12-03T10:58:54.079Z,34.58
2022-12-03T11:01:25.032Z,36.33
2022-12-03T11:03:54.921Z,37.60
2022-12-03T11:06:24.662Z,35.67
2022-12-03T11:08:58.556Z,36.25
2022-12-03T11:11:31.849Z,41.05
2022-12-03T11:14:01.306Z,32.03
2022-12-03T11:17:09.918Z,38.45
2022-12-03T11:19:49.883Z,39.25
2022-12-03T11:22:43.306Z,37.92
2022-12-03T11:25:47.839Z,36.67
2022-12-03T11:28:43.749Z,36.22
2022-12-03T11:31:37.802Z,37.28
2022-12-03T11:34:48.903Z,35.28
2022-12-03T11:37:24.921Z,34.67
2022-12-03T11:40:39.372Z,36.33
2022-12-03T11:43:11.717Z,34.88
2022-12-03T11:45:40.423Z,34.17
2022-12-03T11:48:15.060Z,36.42
2022-12-03T11:50:44.861Z,36.35
2022-12-03T11:53:20.168Z,35.45
2022-12-03T11:55:53.391Z,34.33
2022-12-03T12:00:55.194Z,36.28
2022-12-03T12:03:27.714Z,35.67
2022-12-03T12:06:03.832Z,34.22
2022-12-03T12:08:32.839Z,36.03
2022-12-03T12:11:01.703Z,37.88
2022-12-03T12:13:58.206Z,35.45
2022-12-03T12:16:50.611Z,34.03
2022-12-03T12:19:41.459Z,34.75
2022-12-03T12:22:19.028Z,35.95
2022-12-03T12:24:51.704Z,39.65
2022-12-03T12:27:22.271Z,37.75
2022-12-03T12:29:56.038Z,32.67
2022-12-03T12:32:27.938Z,33.33
2022-12-03T12:35:01.252Z,35.95
2022-12-03T12:37:35.609Z,37.42
2022-12-03T12:40:11.525Z,34.72
2022-12-03T12:42:45.488Z,37.72
2022-12-03T12:45:18.842Z,35.50
2022-12-03T12:47:54.420Z,35.50
2022-12-03T12:50:24.244Z,37.63
2022-12-03T12:52:54.961Z,41.30
2022-12-03T12:55:24.952Z,35.90
2022-12-03T12:57:53.378Z,36.13
2022-12-03T13:00:25.381Z,37.88
2022-12-03T13:02:58.051Z,34.13
2022-12-03T13:05:32.969Z,36.67
2022-12-03T13:08:03.646Z,32.92
2022-12-03T13:10:39.425Z,34.83
2022-12-03T13:13:25.748Z,34.55
2022-12-03T13:16:00.433Z,31.98
2022-12-03T13:18:34.091Z,36.30
2022-12-03T13:21:14.502Z,37.85
2022-12-03T13:23:42.828Z,36.08
2022-12-03T13:26:32.899Z,36.20
2022-12-03T13:29:14.676Z,36.25
2022-12-03T13:31:48.938Z,34.20
2022-12-03T13:34:20.730Z,35.95
2022-12-03T13:36:56.991Z,34.63
2022-12-03T13:39:30.650Z,35.15
2022-12-03T13:42:17.683Z,33.05
2022-12-03T13:44:48.483Z,33.65
2022-12-03T13:47:19.694Z,35.75
2022-12-03T13:49:53.887Z,35.05
2022-12-03T13:52:26.207Z,36.70
2022-12-03T13:55:08.403Z,33.45
2022-12-03T13:57:36.616Z,31.63
2022-12-03T14:00:06.044Z,36.42
2022-12-03T14:02:34.321Z,37.05
2022-12-03T14:05:06.595Z,32.30
2022-12-03T14:07:36.269Z,36.23
2022-12-03T14:10:04.959Z,39.15
2022-12-03T14:12:38.834Z,35.83
2022-12-03T14:15:15.536Z,36.67
2022-12-03T14:17:43.762Z,35.50
2022-12-03T14:20:15.389Z,30.92
2022-12-03T14:22:59.343Z,36.45
2022-12-03T14:25:56.780Z,35.42
2022-12-03T14:28:26.996Z,35.67
2022-12-03T14:30:55.240Z,38.67
2022-12-03T14:33:29.410Z,38.20
2022-12-03T14:35:58.770Z,36.97
2022-12-03T14:38:28.977Z,34.72
2022-12-03T14:40:57.255Z,40.25
2022-12-03T14:43:39.458Z,32.05
2022-12-03T14:46:15.196Z,37.72
2022-12-03T14:48:44.234Z,35.83
2022-12-03T14:51:13.567Z,37.40
2022-12-03T14:53:43.190Z,36.70
2022-12-03T14:56:14.123Z,38.13
2022-12-03T14:58:42.460Z,33.72
2022-12-03T15:01:10.812Z,36.35
2022-12-03T15:03:39.072Z,40.00
2022-12-03T15:06:08.132Z,52.00
2022-12-03T15:08:37.834Z,37.13
2022-12-03T15:11:07.710Z,38.80
2022-12-03T15:14:16.112Z,35.72
2022-12-03T15:16:44.448Z,36.85
2022-12-03T15:19:12.715Z,38.67
2022-12-03T15:21:51.894Z,38.25
2022-12-03T15:24:22.480Z,39.13
2022-12-03T15:26:53.578Z,43.28
2022-12-03T15:29:21.984Z,35.92
2022-12-03T15:31:50.373Z,38.58
2022-12-03T15:34:33.901Z,34.90
2022-12-03T15:39:30.241Z,40.08
2022-12-03T15:41:59.798Z,40.67
2022-12-03T15:44:28.049Z,37.28
2022-12-03T15:46:56.255Z,40.78
2022-12-03T15:49:24.491Z,35.47
2022-12-03T15:51:52.733Z,33.13
2022-12-03T15:54:21.097Z,36.22
2022-12-03T15:56:54.029Z,38.00
2022-12-03T15:59:27.040Z,37.78
2022-12-03T16:01:55.363Z,37.35
2022-12-03T16:04:23.873Z,36.58
2022-12-03T16:06:59.389Z,35.83
2022-12-03T16:09:40.121Z,35.25
2022-12-03T16:12:08.897Z,44.45
2022-12-03T16:14:38.563Z,36.35
2022-12-03T16:17:18.360Z,38.63
2022-12-03T16:19:46.834Z,37.85
2022-12-03T16:22:15.050Z,34.92
2022-12-03T16:25:14.514Z,36.88
2022-12-03T16:28:16.544Z,37.30
2022-12-03T16:31:04.724Z,36.20
2022-12-03T16:33:33.808Z,38.97
2022-12-03T16:36:30.893Z,36.35
2022-12-03T16:39:51.709Z,36.67
2022-12-03T16:42:27.245Z,37.17
2022-12-03T16:45:25.484Z,38.58
2022-12-03T16:48:04.504Z,37.05
2022-12-03T16:50:32.925Z,33.90
2022-12-03T16:53:01.119Z,33.17
2022-12-03T16:55:29.355Z,36.85
2022-12-03T16:57:57.571Z,41.30
2022-12-03T17:00:27.559Z,35.15
2022-12-03T17:02:55.803Z,34.85
2022-12-03T17:05:25.565Z,33.83
2022-12-03T17:07:54.114Z,33.70
2022-12-03T17:10:22.483Z,41.03
2022-12-03T17:15:39.688Z,38.30
2022-12-03T17:18:09.475Z,34.10
2022-12-03T17:20:39.146Z,33.35
2022-12-03T17:23:07.599Z,35.35
2022-12-03T17:25:36.047Z,36.88
2022-12-03T17:28:04.755Z,33.85
2022-12-03T17:30:33.006Z,35.20
2022-12-03T17:33:01.212Z,38.75
2022-12-03T17:35:29.646Z,39.25
2022-12-03T17:37:59.363Z,33.53
2022-12-03T17:40:27.557Z,32.58
2022-12-03T17:42:55.775Z,29.75
2022-12-03T17:45:23.997Z,35.58
2022-12-03T17:47:52.221Z,37.97
2022-12-03T17:50:20.444Z,33.65
2022-12-03T17:52:48.697Z,36.45
2022-12-03T17:55:28.152Z,34.13
2022-12-03T17:58:01.961Z,35.03
2022-12-03T18:00:30.461Z,38.33
2022-12-03T18:02:59.023Z,32.53
2022-12-03T18:05:27.260Z,34.42
2022-12-03T18:07:55.736Z,36.85
2022-12-03T18:10:25.646Z,33.78
2022-12-03T18:12:58.297Z,35.90
2022-12-03T18:15:29.975Z,34.03
2022-12-03T18:17:58.194Z,36.20
2022-12-03T18:20:26.465Z,36.42
2022-12-03T18:22:54.748Z,36.47
2022-12-03T18:25:24.454Z,35.33
2022-12-03T18:27:52.852Z,37.30
2022-12-03T18:30:21.210Z,34.50
2022-12-03T18:32:49.758Z,33.95
2022-12-03T18:35:18.289Z,31.80
2022-12-03T18:37:46.712Z,35.60
2022-12-03T18:40:20.102Z,33.75
2022-12-03T18:42:49.897Z,38.17
2022-12-03T18:45:18.533Z,33.75
2022-12-03T18:47:47.009Z,38.35
2022-12-03T18:50:15.636Z,34.90
2022-12-03T18:52:44.024Z,38.85
2022-12-03T18:55:18.623Z,34.58
2022-12-03T18:57:46.902Z,37.42
2022-12-03T19:00:17.587Z,38.20
2022-12-03T19:05:35.984Z,32.83
2022-12-03T19:08:09.120Z,33.95
2022-12-03T19:13:05.345Z,36.83
2022-12-03T19:15:37.387Z,36.63
2022-12-03T19:18:07.497Z,40.58
2022-12-03T19:20:35.973Z,33.90
2022-12-03T19:23:04.189Z,35.88
2022-12-03T19:25:32.452Z,34.13
2022-12-03T19:28:00.715Z,36.10
2022-12-03T19:30:28.944Z,32.30
2022-12-03T19:32:58.608Z,33.17
2022-12-03T19:35:27.081Z,34.00
2022-12-03T19:37:55.748Z,28.90
2022-12-03T19:40:24.020Z,33.58
2022-12-03T19:42:52.507Z,31.33
2022-12-03T19:45:20.701Z,35.05
2022-12-03T19:47:48.914Z,32.35
2022-12-03T19:50:22.974Z,35.85
2022-12-03T19:52:51.875Z,36.20
2022-12-03T19:55:20.707Z,34.85
2022-12-03T19:57:49.176Z,36.72
2022-12-03T20:00:18.209Z,34.28
2022-12-03T20:02:49.004Z,32.92
2022-12-03T20:05:18.988Z,32.22
2022-12-03T20:07:47.519Z,39.33
2022-12-03T20:10:15.795Z,35.55
2022-12-03T20:12:44.082Z,34.75
2022-12-03T20:15:13.817Z,36.72
2022-12-03T20:17:42.070Z,37.58
2022-12-03T20:20:11.431Z,36.85
2022-12-03T20:22:41.088Z,36.60
2022-12-03T20:25:10.042Z,35.72
2022-12-03T20:27:38.685Z,31.13
2022-12-03T20:30:08.168Z,35.45
2022-12-03T20:32:40.727Z,33.63
2022-12-03T20:35:13.235Z,35.60
2022-12-03T20:37:42.897Z,31.48
2022-12-03T20:40:11.947Z,33.50
2022-12-03T20:42:40.170Z,34.53
2022-12-03T20:45:09.509Z,31.88
2022-12-03T20:47:37.775Z,33.03
2022-12-03T20:50:07.221Z,32.92
2022-12-03T20:52:35.613Z,32.92
2022-12-03T20:55:05.743Z,34.08
2022-12-03T20:57:33.953Z,33.42
2022-12-03T21:00:02.181Z,31.73
2022-12-03T21:02:30.501Z,33.42
2022-12-03T21:04:59.022Z,33.88
2022-12-03T21:07:27.392Z,36.15
2022-12-03T21:09:55.811Z,37.05
2022-12-03T21:12:25.601Z,32.22
2022-12-03T21:14:53.874Z,31.88
2022-12-03T21:17:22.239Z,33.85
2022-12-03T21:19:50.664Z,31.80
2022-12-03T21:22:18.943Z,34.10
2022-12-03T21:24:47.164Z,33.58
2022-12-03T21:27:20.000Z,33.85
2022-12-03T21:29:51.381Z,33.65
2022-12-03T21:32:20.114Z,34.10
2022-12-03T21:34:48.473Z,35.17
2022-12-03T21:37:16.767Z,33.20
2022-12-03T21:39:45.136Z,34.53
2022-12-03T21:42:34.453Z,31.77
2022-12-03T21:45:02.941Z,32.90
2022-12-03T21:47:37.023Z,33.20
2022-12-03T21:50:07.440Z,29.65
2022-12-03T21:52:36.622Z,29.98
2022-12-03T21:55:05.476Z,31.42
2022-12-03T21:57:35.956Z,33.05
2022-12-03T22:00:07.673Z,30.42
2022-12-03T22:02:36.216Z,33.08
2022-12-03T22:05:04.675Z,34.63
2022-12-03T22:07:34.333Z,31.88
2022-12-03T22:10:02.665Z,32.97
2022-12-03T22:12:30.878Z,30.98
2022-12-03T22:14:59.228Z,28.40
2022-12-03T22:17:29.098Z,27.73
2022-12-03T22:19:57.702Z,31.13
2022-12-03T22:22:26.006Z,30.42
2022-12-03T22:24:54.236Z,32.35
2022-12-03T22:27:22.443Z,29.67
2022-12-03T22:29:50.760Z,29.13
2022-12-03T22:32:19.006Z,30.85
2022-12-03T22:34:48.614Z,28.75
2022-12-03T22:37:17.090Z,31.83
2022-12-03T22:39:45.359Z,28.15
2022-12-03T22:42:13.612Z,29.88
2022-12-03T22:44:41.849Z,29.20
2022-12-03T22:47:10.100Z,27.40
2022-12-03T22:49:38.385Z,29.95
2022-12-03T22:52:08.488Z,28.92
2022-12-03T22:54:36.931Z,31.10
2022-12-03T22:57:05.495Z,26.35
2022-12-03T22:59:33.694Z,26.77
2022-12-03T23:02:01.980Z,25.17
2022-12-03T23:04:30.212Z,26.38
2022-12-03T23:06:58.424Z,29.00
2022-12-03T23:09:28.048Z,31.30
2022-12-03T23:11:56.280Z,27.42
2022-12-03T23:14:24.494Z,27.40
2022-12-03T23:16:52.768Z,24.95
2022-12-03T23:19:21.064Z,25.73
2022-12-03T23:21:49.306Z,28.33
2022-12-03T23:24:17.509Z,26.92
2022-12-03T23:26:47.177Z,28.98
2022-12-03T23:29:15.389Z,24.15
2022-12-03T23:31:43.656Z,24.25
2022-12-03T23:34:12.008Z,27.30
2022-12-03T23:36:40.330Z,25.67
2022-12-03T23:39:08.850Z,24.23
2022-12-03T23:41:37.330Z,24.83
2022-12-03T23:44:07.119Z,26.08
2022-12-03T23:46:35.624Z,27.38
2022-12-03T23:49:03.883Z,22.23
2022-12-03T23:51:32.122Z,23.85
2022-12-03T23:54:00.470Z,23.50
2022-12-03T23:56:30.959Z,22.95
2022-12-03T23:58:59.579Z,25.63
